sensor_id;sensor_type;location;lat;lon;timestamp;pressure;altitude;pressure_sealevel;temperature;humidity
55546;BME280;44768;50.298;127.520;2022-07-29T00:03:49;99293.69;;;31.91;48.84
55546;BME280;44768;50.298;127.520;2022-07-29T00:08:51;99277.13;;;31.48;49.52
55546;BME280;44768;50.298;127.520;2022-07-29T00:13:52;99274.00;;;31.25;50.12
55546;BME280;44768;50.298;127.520;2022-07-29T00:18:54;99286.72;;;31.40;49.89
55546;BME280;44768;50.298;127.520;2022-07-29T00:23:55;99299.13;;;31.32;50.15
55546;BME280;44768;50.298;127.520;2022-07-29T00:28:59;99293.94;;;31.20;50.55
55546;BME280;44768;50.298;127.520;2022-07-29T00:34:01;99281.97;;;31.30;50.34
55546;BME280;44768;50.298;127.520;2022-07-29T00:39:04;99283.59;;;31.10;49.98
55546;BME280;44768;50.298;127.520;2022-07-29T00:44:05;99301.56;;;30.73;51.01
55546;BME280;44768;50.298;127.520;2022-07-29T00:49:07;99279.66;;;30.61;51.31
55546;BME280;44768;50.298;127.520;2022-07-29T00:54:09;99292.78;;;30.96;50.58
55546;BME280;44768;50.298;127.520;2022-07-29T00:59:10;99287.19;;;31.10;50.25
55546;BME280;44768;50.298;127.520;2022-07-29T01:04:12;99285.53;;;31.31;49.85
55546;BME280;44768;50.298;127.520;2022-07-29T01:09:14;99293.94;;;31.27;49.69
55546;BME280;44768;50.298;127.520;2022-07-29T01:14:16;99310.28;;;31.00;50.01
55546;BME280;44768;50.298;127.520;2022-07-29T01:30:41;99328.19;;;30.46;51.29
55546;BME280;44768;50.298;127.520;2022-07-29T01:35:44;99321.81;;;30.35;51.07
55546;BME280;44768;50.298;127.520;2022-07-29T01:40:51;99334.56;;;30.50;51.07
55546;BME280;44768;50.298;127.520;2022-07-29T01:46:02;99318.66;;;30.47;51.47
55546;BME280;44768;50.298;127.520;2022-07-29T01:51:20;99313.06;;;30.33;51.77
55546;BME280;44768;50.298;127.520;2022-07-29T01:56:23;99305.16;;;30.74;51.05
55546;BME280;44768;50.298;127.520;2022-07-29T02:01:26;99296.34;;;31.04;50.44
55546;BME280;44768;50.298;127.520;2022-07-29T02:06:29;99293.91;;;31.23;50.01
55546;BME280;44768;50.298;127.520;2022-07-29T02:11:34;99306.69;;;31.14;50.04
55546;BME280;44768;50.298;127.520;2022-07-29T02:16:38;99293.97;;;30.95;50.40
55546;BME280;44768;50.298;127.520;2022-07-29T02:21:42;99301.13;;;31.10;50.19
55546;BME280;44768;50.298;127.520;2022-07-29T02:26:45;99301.50;;;31.16;50.02
55546;BME280;44768;50.298;127.520;2022-07-29T02:31:49;99295.50;;;31.21;50.15
55546;BME280;44768;50.298;127.520;2022-07-29T02:36:52;99301.00;;;31.57;49.58
55546;BME280;44768;50.298;127.520;2022-07-29T02:42:03;99301.28;;;31.87;49.01
55546;BME280;44768;50.298;127.520;2022-07-29T02:52:18;99296.22;;;31.61;49.51
55546;BME280;44768;50.298;127.520;2022-07-29T02:57:28;99289.09;;;31.45;50.08
55546;BME280;44768;50.298;127.520;2022-07-29T03:02:35;99282.75;;;31.23;50.94
55546;BME280;44768;50.298;127.520;2022-07-29T03:07:38;99280.81;;;31.13;51.32
55546;BME280;44768;50.298;127.520;2022-07-29T03:12:42;99278.03;;;31.06;50.93
55546;BME280;44768;50.298;127.520;2022-07-29T03:17:45;99277.69;;;30.79;51.51
55546;BME280;44768;50.298;127.520;2022-07-29T03:22:47;99282.44;;;30.61;51.54
55546;BME280;44768;50.298;127.520;2022-07-29T03:27:49;99290.00;;;30.50;52.17
55546;BME280;44768;50.298;127.520;2022-07-29T03:32:51;99285.22;;;30.40;52.91
55546;BME280;44768;50.298;127.520;2022-07-29T03:37:53;99282.44;;;30.54;52.23
55546;BME280;44768;50.298;127.520;2022-07-29T03:42:56;99270.94;;;30.73;51.82
55546;BME280;44768;50.298;127.520;2022-07-29T03:48:02;99262.13;;;31.00;51.78
55546;BME280;44768;50.298;127.520;2022-07-29T03:53:07;99258.94;;;31.01;51.50
55546;BME280;44768;50.298;127.520;2022-07-29T03:58:10;99267.63;;;31.35;51.28
55546;BME280;44768;50.298;127.520;2022-07-29T04:03:16;99259.56;;;31.59;50.22
55546;BME280;44768;50.298;127.520;2022-07-29T04:08:18;99233.94;;;31.78;49.70
55546;BME280;44768;50.298;127.520;2022-07-29T04:13:20;99248.59;;;31.96;49.88
55546;BME280;44768;50.298;127.520;2022-07-29T04:18:22;99258.34;;;32.29;49.53
55546;BME280;44768;50.298;127.520;2022-07-29T04:23:23;99231.09;;;32.48;48.70
55546;BME280;44768;50.298;127.520;2022-07-29T04:28:25;99251.50;;;32.41;48.93
55546;BME280;44768;50.298;127.520;2022-07-29T04:33:27;99244.13;;;32.09;49.84
55546;BME280;44768;50.298;127.520;2022-07-29T04:38:28;99248.84;;;31.54;50.89
55546;BME280;44768;50.298;127.520;2022-07-29T04:43:31;99247.00;;;30.86;52.67
55546;BME280;44768;50.298;127.520;2022-07-29T04:48:32;99246.25;;;30.50;53.48
55546;BME280;44768;50.298;127.520;2022-07-29T04:53:34;99249.44;;;30.27;54.20
55546;BME280;44768;50.298;127.520;2022-07-29T04:58:37;99245.38;;;29.96;54.58
55546;BME280;44768;50.298;127.520;2022-07-29T05:03:39;99246.16;;;29.83;55.35
55546;BME280;44768;50.298;127.520;2022-07-29T05:08:41;99240.59;;;29.83;54.89
55546;BME280;44768;50.298;127.520;2022-07-29T05:13:43;99217.50;;;29.64;54.85
55546;BME280;44768;50.298;127.520;2022-07-29T05:18:44;99230.59;;;29.60;55.30
55546;BME280;44768;50.298;127.520;2022-07-29T05:23:46;99219.81;;;29.45;55.91
55546;BME280;44768;50.298;127.520;2022-07-29T05:28:47;99220.59;;;29.45;55.94
55546;BME280;44768;50.298;127.520;2022-07-29T05:33:49;99197.91;;;29.36;55.86
55546;BME280;44768;50.298;127.520;2022-07-29T05:38:50;99210.28;;;29.42;56.09
55546;BME280;44768;50.298;127.520;2022-07-29T05:43:53;99202.69;;;29.32;56.33
55546;BME280;44768;50.298;127.520;2022-07-29T05:48:55;99206.25;;;29.36;56.36
55546;BME280;44768;50.298;127.520;2022-07-29T05:53:57;99187.22;;;29.38;56.42
55546;BME280;44768;50.298;127.520;2022-07-29T05:58:58;99192.53;;;29.86;55.88
55546;BME280;44768;50.298;127.520;2022-07-29T06:04:00;99197.72;;;30.12;55.42
55546;BME280;44768;50.298;127.520;2022-07-29T06:09:02;99195.72;;;30.02;55.54
55546;BME280;44768;50.298;127.520;2022-07-29T06:14:04;99184.94;;;29.76;55.62
55546;BME280;44768;50.298;127.520;2022-07-29T06:19:05;99177.75;;;29.60;56.60
55546;BME280;44768;50.298;127.520;2022-07-29T06:24:07;99182.88;;;29.44;56.56
55546;BME280;44768;50.298;127.520;2022-07-29T06:29:09;99173.69;;;29.33;57.15
55546;BME280;44768;50.298;127.520;2022-07-29T06:34:11;99166.19;;;29.51;56.80
55546;BME280;44768;50.298;127.520;2022-07-29T06:39:13;99160.72;;;29.65;56.24
55546;BME280;44768;50.298;127.520;2022-07-29T06:44:17;99153.09;;;29.52;56.09
55546;BME280;44768;50.298;127.520;2022-07-29T06:49:18;99157.06;;;29.47;56.45
55546;BME280;44768;50.298;127.520;2022-07-29T06:54:20;99151.44;;;29.26;57.11
55546;BME280;44768;50.298;127.520;2022-07-29T06:59:22;99144.69;;;29.20;57.22
55546;BME280;44768;50.298;127.520;2022-07-29T07:04:24;99133.19;;;29.28;56.76
55546;BME280;44768;50.298;127.520;2022-07-29T07:09:26;99136.00;;;29.39;56.90
55546;BME280;44768;50.298;127.520;2022-07-29T07:14:27;99123.69;;;29.47;56.86
55546;BME280;44768;50.298;127.520;2022-07-29T07:19:29;99122.91;;;29.54;56.85
55546;BME280;44768;50.298;127.520;2022-07-29T07:24:31;99125.28;;;29.52;56.78
55546;BME280;44768;50.298;127.520;2022-07-29T07:29:32;99145.94;;;29.47;56.74
55546;BME280;44768;50.298;127.520;2022-07-29T07:34:34;99143.91;;;29.33;57.47
55546;BME280;44768;50.298;127.520;2022-07-29T07:39:36;99150.72;;;29.43;57.22
55546;BME280;44768;50.298;127.520;2022-07-29T07:44:39;99147.53;;;29.55;56.98
55546;BME280;44768;50.298;127.520;2022-07-29T07:49:40;99147.94;;;29.54;56.81
55546;BME280;44768;50.298;127.520;2022-07-29T07:54:42;99154.69;;;29.56;56.58
55546;BME280;44768;50.298;127.520;2022-07-29T07:59:45;99157.53;;;29.70;56.30
55546;BME280;44768;50.298;127.520;2022-07-29T08:04:47;99136.47;;;29.66;56.00
55546;BME280;44768;50.298;127.520;2022-07-29T08:09:49;99130.06;;;29.40;57.00
55546;BME280;44768;50.298;127.520;2022-07-29T08:14:50;99129.66;;;29.42;56.60
55546;BME280;44768;50.298;127.520;2022-07-29T08:19:52;99120.13;;;29.54;56.19
55546;BME280;44768;50.298;127.520;2022-07-29T08:24:53;99114.16;;;29.55;56.39
55546;BME280;44768;50.298;127.520;2022-07-29T08:29:56;99128.13;;;29.73;55.99
55546;BME280;44768;50.298;127.520;2022-07-29T08:34:58;99122.97;;;29.86;55.67
55546;BME280;44768;50.298;127.520;2022-07-29T08:40:00;99112.66;;;30.04;55.28
55546;BME280;44768;50.298;127.520;2022-07-29T08:45:03;99103.91;;;29.88;55.75
55546;BME280;44768;50.298;127.520;2022-07-29T08:50:09;99096.75;;;29.73;56.21
55546;BME280;44768;50.298;127.520;2022-07-29T08:55:11;99109.44;;;29.59;56.42
55546;BME280;44768;50.298;127.520;2022-07-29T09:00:13;99116.59;;;29.60;56.48
55546;BME280;44768;50.298;127.520;2022-07-29T09:05:15;99123.75;;;29.65;56.19
55546;BME280;44768;50.298;127.520;2022-07-29T09:10:18;99120.19;;;29.79;56.00
55546;BME280;44768;50.298;127.520;2022-07-29T09:15:19;99120.56;;;29.59;56.38
55546;BME280;44768;50.298;127.520;2022-07-29T09:20:21;99122.91;;;29.43;56.93
55546;BME280;44768;50.298;127.520;2022-07-29T09:25:40;99128.00;;;29.20;57.26
55546;BME280;44768;50.298;127.520;2022-07-29T09:30:52;99112.84;;;29.03;57.23
55546;BME280;44768;50.298;127.520;2022-07-29T09:36:08;99106.81;;;28.83;58.01
55546;BME280;44768;50.298;127.520;2022-07-29T09:41:10;99102.75;;;28.66;58.15
55546;BME280;44768;50.298;127.520;2022-07-29T09:46:13;99103.94;;;28.62;57.89
55546;BME280;44768;50.298;127.520;2022-07-29T09:51:21;99113.34;;;28.46;58.43
55546;BME280;44768;50.298;127.520;2022-07-29T09:56:48;99101.47;;;28.49;58.57
55546;BME280;44768;50.298;127.520;2022-07-29T10:01:50;99093.16;;;28.49;58.03
55546;BME280;44768;50.298;127.520;2022-07-29T10:06:59;99111.69;;;28.38;58.39
55546;BME280;44768;50.298;127.520;2022-07-29T10:12:05;99097.00;;;28.31;58.79
55546;BME280;44768;50.298;127.520;2022-07-29T10:17:09;99094.94;;;28.20;58.71
55546;BME280;44768;50.298;127.520;2022-07-29T10:22:11;99099.50;;;27.92;59.44
55546;BME280;44768;50.298;127.520;2022-07-29T10:27:13;99086.97;;;27.64;59.77
55546;BME280;44768;50.298;127.520;2022-07-29T10:32:30;99097.63;;;27.62;60.14
55546;BME280;44768;50.298;127.520;2022-07-29T10:42:55;99103.22;;;27.66;60.38
55546;BME280;44768;50.298;127.520;2022-07-29T10:48:04;99117.88;;;27.66;60.15
55546;BME280;44768;50.298;127.520;2022-07-29T10:53:09;99120.56;;;27.59;60.42
55546;BME280;44768;50.298;127.520;2022-07-29T10:58:16;99130.38;;;27.49;60.54
55546;BME280;44768;50.298;127.520;2022-07-29T11:03:47;99129.06;;;27.40;60.75
55546;BME280;44768;50.298;127.520;2022-07-29T11:09:17;99138.50;;;27.32;61.18
55546;BME280;44768;50.298;127.520;2022-07-29T11:19:50;99167.19;;;27.16;61.08
55546;BME280;44768;50.298;127.520;2022-07-29T11:25:13;99190.34;;;27.01;62.02
55546;BME280;44768;50.298;127.520;2022-07-29T11:30:14;99186.72;;;26.97;61.93
55546;BME280;44768;50.298;127.520;2022-07-29T11:35:19;99188.34;;;26.98;62.29
55546;BME280;44768;50.298;127.520;2022-07-29T11:40:24;99203.31;;;26.97;62.17
55546;BME280;44768;50.298;127.520;2022-07-29T11:45:27;99199.91;;;27.07;61.98
55546;BME280;44768;50.298;127.520;2022-07-29T11:50:47;99200.41;;;27.16;61.77
55546;BME280;44768;50.298;127.520;2022-07-29T11:55:54;99200.41;;;27.16;61.64
55546;BME280;44768;50.298;127.520;2022-07-29T12:00:57;99193.91;;;27.02;61.97
55546;BME280;44768;50.298;127.520;2022-07-29T12:06:00;99189.81;;;26.92;62.36
55546;BME280;44768;50.298;127.520;2022-07-29T12:11:03;99190.53;;;26.85;62.49
55546;BME280;44768;50.298;127.520;2022-07-29T12:16:04;99202.78;;;26.84;62.51
55546;BME280;44768;50.298;127.520;2022-07-29T12:21:06;99174.50;;;26.72;63.05
55546;BME280;44768;50.298;127.520;2022-07-29T12:26:09;99180.81;;;26.68;62.96
55546;BME280;44768;50.298;127.520;2022-07-29T12:31:15;99175.91;;;26.58;63.17
55546;BME280;44768;50.298;127.520;2022-07-29T12:36:17;99191.31;;;26.59;63.20
55546;BME280;44768;50.298;127.520;2022-07-29T12:41:18;99189.31;;;26.56;63.45
55546;BME280;44768;50.298;127.520;2022-07-29T12:46:20;99172.59;;;26.49;63.48
55546;BME280;44768;50.298;127.520;2022-07-29T12:51:39;99158.66;;;26.42;63.69
55546;BME280;44768;50.298;127.520;2022-07-29T12:56:43;99155.78;;;26.35;63.38
55546;BME280;44768;50.298;127.520;2022-07-29T13:01:46;99145.44;;;26.32;63.96
55546;BME280;44768;50.298;127.520;2022-07-29T13:07:01;99141.91;;;26.08;64.10
55546;BME280;44768;50.298;127.520;2022-07-29T13:12:06;99158.69;;;26.19;64.33
55546;BME280;44768;50.298;127.520;2022-07-29T13:17:18;99155.19;;;26.22;64.30
55546;BME280;44768;50.298;127.520;2022-07-29T13:22:23;99152.56;;;26.06;64.31
55546;BME280;44768;50.298;127.520;2022-07-29T13:27:27;99169.56;;;26.08;64.79
55546;BME280;44768;50.298;127.520;2022-07-29T13:32:30;99152.25;;;26.12;64.61
55546;BME280;44768;50.298;127.520;2022-07-29T13:37:35;99139.34;;;25.96;64.98
55546;BME280;44768;50.298;127.520;2022-07-29T13:42:39;99154.53;;;26.06;64.83
55546;BME280;44768;50.298;127.520;2022-07-29T13:47:41;99146.28;;;26.09;64.73
55546;BME280;44768;50.298;127.520;2022-07-29T13:52:44;99140.13;;;25.97;64.63
55546;BME280;44768;50.298;127.520;2022-07-29T13:57:46;99136.16;;;25.94;65.03
55546;BME280;44768;50.298;127.520;2022-07-29T14:02:48;99122.50;;;25.82;65.51
55546;BME280;44768;50.298;127.520;2022-07-29T14:07:50;99126.81;;;25.79;65.61
55546;BME280;44768;50.298;127.520;2022-07-29T14:12:52;99118.13;;;25.81;65.18
55546;BME280;44768;50.298;127.520;2022-07-29T14:17:54;99108.88;;;25.70;65.53
55546;BME280;44768;50.298;127.520;2022-07-29T14:22:55;99104.88;;;25.67;65.78
55546;BME280;44768;50.298;127.520;2022-07-29T14:27:57;99115.81;;;25.60;65.69
55546;BME280;44768;50.298;127.520;2022-07-29T14:32:58;99098.84;;;25.39;65.71
55546;BME280;44768;50.298;127.520;2022-07-29T14:38:00;99136.66;;;25.35;65.70
55546;BME280;44768;50.298;127.520;2022-07-29T14:43:02;99129.28;;;25.23;66.28
55546;BME280;44768;50.298;127.520;2022-07-29T14:48:03;99133.88;;;25.15;66.42
55546;BME280;44768;50.298;127.520;2022-07-29T14:53:06;99125.69;;;25.00;66.45
55546;BME280;44768;50.298;127.520;2022-07-29T14:58:08;99136.66;;;24.96;66.39
55546;BME280;44768;50.298;127.520;2022-07-29T15:03:10;99129.03;;;24.89;66.74
55546;BME280;44768;50.298;127.520;2022-07-29T15:08:11;99131.66;;;24.82;66.79
55546;BME280;44768;50.298;127.520;2022-07-29T15:13:13;99126.84;;;24.79;66.78
55546;BME280;44768;50.298;127.520;2022-07-29T15:18:15;99116.38;;;24.69;66.95
55546;BME280;44768;50.298;127.520;2022-07-29T15:23:17;99100.72;;;24.57;67.10
55546;BME280;44768;50.298;127.520;2022-07-29T15:28:18;99119.84;;;24.66;66.85
55546;BME280;44768;50.298;127.520;2022-07-29T15:33:20;99114.44;;;24.54;67.03
55546;BME280;44768;50.298;127.520;2022-07-29T15:38:21;99115.53;;;24.49;66.87
55546;BME280;44768;50.298;127.520;2022-07-29T15:43:23;99124.69;;;24.53;66.85
55546;BME280;44768;50.298;127.520;2022-07-29T15:48:24;99124.59;;;24.50;66.95
55546;BME280;44768;50.298;127.520;2022-07-29T15:53:27;99122.13;;;24.45;66.95
55546;BME280;44768;50.298;127.520;2022-07-29T15:58:29;99133.88;;;24.42;67.21
55546;BME280;44768;50.298;127.520;2022-07-29T16:03:31;99125.72;;;24.29;67.07
55546;BME280;44768;50.298;127.520;2022-07-29T16:08:33;99129.63;;;24.28;67.12
55546;BME280;44768;50.298;127.520;2022-07-29T16:13:34;99139.78;;;24.24;67.27
55546;BME280;44768;50.298;127.520;2022-07-29T16:18:36;99138.47;;;24.18;67.00
55546;BME280;44768;50.298;127.520;2022-07-29T16:23:38;99150.19;;;24.15;67.10
55546;BME280;44768;50.298;127.520;2022-07-29T16:28:40;99146.19;;;23.97;67.09
55546;BME280;44768;50.298;127.520;2022-07-29T16:33:42;99168.53;;;24.08;67.63
55546;BME280;44768;50.298;127.520;2022-07-29T16:38:44;99154.47;;;23.97;67.41
55546;BME280;44768;50.298;127.520;2022-07-29T16:43:46;99160.63;;;24.06;67.28
55546;BME280;44768;50.298;127.520;2022-07-29T16:48:48;99160.97;;;24.05;67.75
55546;BME280;44768;50.298;127.520;2022-07-29T16:53:50;99161.94;;;24.12;67.75
55546;BME280;44768;50.298;127.520;2022-07-29T16:58:52;99164.09;;;24.19;67.45
55546;BME280;44768;50.298;127.520;2022-07-29T17:03:53;99168.00;;;24.18;66.94
55546;BME280;44768;50.298;127.520;2022-07-29T17:09:08;99163.53;;;24.13;67.02
55546;BME280;44768;50.298;127.520;2022-07-29T17:14:10;99175.28;;;24.10;67.15
55546;BME280;44768;50.298;127.520;2022-07-29T17:19:12;99172.53;;;24.10;66.96
55546;BME280;44768;50.298;127.520;2022-07-29T17:24:13;99185.88;;;24.08;66.95
55546;BME280;44768;50.298;127.520;2022-07-29T17:29:15;99190.94;;;24.06;66.83
55546;BME280;44768;50.298;127.520;2022-07-29T17:34:17;99190.94;;;24.06;66.90
55546;BME280;44768;50.298;127.520;2022-07-29T17:39:18;99194.31;;;24.00;66.94
55546;BME280;44768;50.298;127.520;2022-07-29T17:44:20;99206.03;;;23.96;66.85
55546;BME280;44768;50.298;127.520;2022-07-29T17:49:22;99194.44;;;23.91;66.97
55546;BME280;44768;50.298;127.520;2022-07-29T17:54:24;99197.56;;;23.89;67.00
55546;BME280;44768;50.298;127.520;2022-07-29T17:59:26;99202.53;;;23.84;67.09
55546;BME280;44768;50.298;127.520;2022-07-29T18:04:27;99198.53;;;23.81;67.03
55546;BME280;44768;50.298;127.520;2022-07-29T18:09:31;99191.34;;;23.77;67.36
55546;BME280;44768;50.298;127.520;2022-07-29T18:14:33;99170.34;;;23.56;67.11
55546;BME280;44768;50.298;127.520;2022-07-29T18:19:35;99200.31;;;23.74;67.26
55546;BME280;44768;50.298;127.520;2022-07-29T18:24:36;99211.09;;;23.79;67.18
55546;BME280;44768;50.298;127.520;2022-07-29T18:29:38;99213.41;;;23.77;67.10
55546;BME280;44768;50.298;127.520;2022-07-29T18:34:39;99216.16;;;23.77;67.14
55546;BME280;44768;50.298;127.520;2022-07-29T18:39:41;99205.38;;;23.72;66.92
55546;BME280;44768;50.298;127.520;2022-07-29T18:44:42;99187.84;;;23.64;66.96
55546;BME280;44768;50.298;127.520;2022-07-29T18:49:44;99189.34;;;23.61;67.02
55546;BME280;44768;50.298;127.520;2022-07-29T18:54:46;99184.56;;;23.58;66.87
55546;BME280;44768;50.298;127.520;2022-07-29T18:59:48;99181.38;;;23.56;67.15
55546;BME280;44768;50.298;127.520;2022-07-29T19:04:52;99208.66;;;23.61;66.58
55546;BME280;44768;50.298;127.520;2022-07-29T19:09:55;99203.88;;;23.46;67.05
55546;BME280;44768;50.298;127.520;2022-07-29T19:14:57;99201.41;;;23.41;67.21
55546;BME280;44768;50.298;127.520;2022-07-29T19:19:59;99210.66;;;23.49;67.01
55546;BME280;44768;50.298;127.520;2022-07-29T19:25:00;99191.72;;;23.47;66.93
55546;BME280;44768;50.298;127.520;2022-07-29T19:30:03;99192.16;;;23.49;66.68
55546;BME280;44768;50.298;127.520;2022-07-29T19:35:07;99186.47;;;23.42;66.94
55546;BME280;44768;50.298;127.520;2022-07-29T19:40:28;99180.97;;;23.42;66.91
55546;BME280;44768;50.298;127.520;2022-07-29T19:45:31;99200.06;;;23.35;66.63
55546;BME280;44768;50.298;127.520;2022-07-29T19:50:32;99192.16;;;23.33;66.87
55546;BME280;44768;50.298;127.520;2022-07-29T19:55:35;99197.41;;;23.38;66.82
55546;BME280;44768;50.298;127.520;2022-07-29T20:00:37;99204.59;;;23.43;66.71
55546;BME280;44768;50.298;127.520;2022-07-29T20:05:38;99202.75;;;23.47;66.35
55546;BME280;44768;50.298;127.520;2022-07-29T20:10:39;99206.19;;;23.44;66.07
55546;BME280;44768;50.298;127.520;2022-07-29T20:15:41;99219.03;;;23.52;65.83
55546;BME280;44768;50.298;127.520;2022-07-29T20:20:43;99219.41;;;23.66;65.68
55546;BME280;44768;50.298;127.520;2022-07-29T20:25:44;99224.41;;;23.77;65.54
55546;BME280;44768;50.298;127.520;2022-07-29T20:30:46;99228.41;;;23.79;65.57
55546;BME280;44768;50.298;127.520;2022-07-29T20:35:47;99220.69;;;23.85;64.89
55546;BME280;44768;50.298;127.520;2022-07-29T20:40:49;99199.34;;;23.82;64.65
55546;BME280;44768;50.298;127.520;2022-07-29T20:45:53;99221.25;;;24.06;64.50
55546;BME280;44768;50.298;127.520;2022-07-29T20:50:54;99217.53;;;24.14;63.94
55546;BME280;44768;50.298;127.520;2022-07-29T20:55:57;99223.13;;;24.34;63.25
55546;BME280;44768;50.298;127.520;2022-07-29T21:00:59;99215.47;;;24.43;63.14
55546;BME280;44768;50.298;127.520;2022-07-29T21:06:01;99236.66;;;24.70;62.92
55546;BME280;44768;50.298;127.520;2022-07-29T21:11:03;99231.16;;;24.89;62.14
55546;BME280;44768;50.298;127.520;2022-07-29T21:16:06;99234.72;;;25.25;61.51
55546;BME280;44768;50.298;127.520;2022-07-29T21:21:14;99235.06;;;25.62;60.97
55546;BME280;44768;50.298;127.520;2022-07-29T21:26:16;99197.75;;;25.72;59.69
55546;BME280;44768;50.298;127.520;2022-07-29T21:31:20;99220.28;;;26.16;59.36
55546;BME280;44768;50.298;127.520;2022-07-29T21:36:24;99220.88;;;26.29;58.98
55546;BME280;44768;50.298;127.520;2022-07-29T21:41:26;99206.44;;;26.39;59.03
55546;BME280;44768;50.298;127.520;2022-07-29T21:46:28;99242.44;;;26.65;58.47
55546;BME280;44768;50.298;127.520;2022-07-29T21:51:30;99241.91;;;26.83;57.87
55546;BME280;44768;50.298;127.520;2022-07-29T21:56:32;99252.75;;;26.95;58.07
55546;BME280;44768;50.298;127.520;2022-07-29T22:01:34;99242.34;;;27.78;55.60
55546;BME280;44768;50.298;127.520;2022-07-29T22:06:35;99257.97;;;27.90;55.57
55546;BME280;44768;50.298;127.520;2022-07-29T22:11:37;99263.63;;;28.45;54.82
55546;BME280;44768;50.298;127.520;2022-07-29T22:16:39;99261.38;;;30.24;51.14
55546;BME280;44768;50.298;127.520;2022-07-29T22:21:41;99266.94;;;30.67;49.87
55546;BME280;44768;50.298;127.520;2022-07-29T22:26:42;99257.03;;;32.93;45.57
55546;BME280;44768;50.298;127.520;2022-07-29T22:31:44;99251.50;;;35.08;41.19
55546;BME280;44768;50.298;127.520;2022-07-29T22:36:45;99248.19;;;36.74;38.62
55546;BME280;44768;50.298;127.520;2022-07-29T22:41:47;99222.28;;;38.30;35.93
55546;BME280;44768;50.298;127.520;2022-07-29T22:46:49;99209.28;;;39.67;33.13
55546;BME280;44768;50.298;127.520;2022-07-29T22:51:50;99218.56;;;39.77;31.71
55546;BME280;44768;50.298;127.520;2022-07-29T22:56:53;99220.13;;;40.00;33.18
55546;BME280;44768;50.298;127.520;2022-07-29T23:01:54;99227.53;;;39.44;33.76
55546;BME280;44768;50.298;127.520;2022-07-29T23:06:56;99212.97;;;39.55;33.70
55546;BME280;44768;50.298;127.520;2022-07-29T23:11:57;99194.78;;;40.55;31.96
55546;BME280;44768;50.298;127.520;2022-07-29T23:16:59;99207.72;;;40.74;32.01
55546;BME280;44768;50.298;127.520;2022-07-29T23:22:01;99194.50;;;40.43;31.99
55546;BME280;44768;50.298;127.520;2022-07-29T23:27:02;99181.16;;;40.80;31.53
55546;BME280;44768;50.298;127.520;2022-07-29T23:32:04;99186.25;;;39.78;33.21
55546;BME280;44768;50.298;127.520;2022-07-29T23:37:06;99178.31;;;39.32;34.33
55546;BME280;44768;50.298;127.520;2022-07-29T23:42:07;99182.03;;;39.20;34.59
55546;BME280;44768;50.298;127.520;2022-07-29T23:47:09;99177.28;;;38.52;35.76
55546;BME280;44768;50.298;127.520;2022-07-29T23:52:11;99165.16;;;38.17;36.78
55546;BME280;44768;50.298;127.520;2022-07-29T23:57:14;99168.97;;;37.46;37.97
